Time;durP1;ratioP1;P1;durP2;ratioP2;P2;SDS_P1;SDS_P2;PMS_P1;PMS_P2;Temp;Humidity;BMP_temperature;BMP_pressure;BME280_temperature;BME280_humidity;BME280_pressure;Samples;Min_cycle;Max_cycle;Signal;HPM_P1;HPM_P2
2022/02/07 00:00:08;;;;;;;0.10;0.10;;;;;;;;;;4980417;28;20037;-91
2022/02/07 00:03:03;;;;;;;0.10;0.10;;;;;;;;;;4978855;28;20390;-89
2022/02/07 00:05:29;;;;;;;0.03;0.03;;;;;;;;;;4997971;28;20133;-90
2022/02/07 00:07:55;;;;;;;0.10;0.10;;;;;;;;;;4978682;28;20128;-90
2022/02/07 00:10:21;;;;;;;0.05;0.05;;;;;;;;;;4994677;28;20141;-89
2022/02/07 00:12:47;;;;;;;0.00;0.00;;;;;;;;;;4978427;28;20042;-90
2022/02/07 00:15:14;;;;;;;0.10;0.10;;;;;;;;;;4994332;28;20492;-90
2022/02/07 00:17:40;;;;;;;0.10;0.10;;;;;;;;;;4978234;28;20069;-91
2022/02/07 00:20:11;;;;;;;0.10;0.10;;;;;;;;;;4978376;28;20048;-90
2022/02/07 00:22:37;;;;;;;0.17;0.17;;;;;;;;;;4979108;28;20437;-89
2022/02/07 00:25:03;;;;;;;0.10;0.10;;;;;;;;;;4978476;28;20037;-89
2022/02/07 00:27:29;;;;;;;0.10;0.10;;;;;;;;;;4978518;28;20072;-90
2022/02/07 00:29:55;;;;;;;0.10;0.10;;;;;;;;;;4978210;28;20077;-90
2022/02/07 00:32:21;;;;;;;0.10;0.10;;;;;;;;;;4994321;28;20041;-91
2022/02/07 00:34:47;;;;;;;0.10;0.10;;;;;;;;;;4978347;28;20114;-89
2022/02/07 00:37:13;;;;;;;0.10;0.10;;;;;;;;;;4979509;28;20038;-90
2022/02/07 00:39:48;;;;;;;0.10;0.10;;;;;;;;;;4998369;28;20041;-90
2022/02/07 00:42:24;;;;;;;0.73;0.63;;;;;;;;;;4983188;28;20181;-90
2022/02/07 00:44:50;;;;;;;0.00;0.00;;;;;;;;;;4983094;28;20125;-89
2022/02/07 00:47:16;;;;;;;0.10;0.10;;;;;;;;;;4982015;28;20041;-89
2022/02/07 00:49:42;;;;;;;0.10;0.10;;;;;;;;;;5014304;28;20056;-89
2022/02/07 00:52:08;;;;;;;0.10;0.10;;;;;;;;;;4997991;28;20046;-89
2022/02/07 00:54:34;;;;;;;0.00;0.00;;;;;;;;;;4998068;28;20140;-91
2022/02/07 00:57:00;;;;;;;0.03;0.03;;;;;;;;;;4981627;28;20053;-89
2022/02/07 00:59:26;;;;;;;0.00;0.00;;;;;;;;;;4997836;28;20045;-90
2022/02/07 01:01:52;;;;;;;0.15;0.15;;;;;;;;;;4981777;28;20088;-90
2022/02/07 01:04:18;;;;;;;0.00;0.00;;;;;;;;;;4997573;28;20073;-89
2022/02/07 01:06:44;;;;;;;0.10;0.10;;;;;;;;;;4981648;28;20492;-89
2022/02/07 01:09:15;;;;;;;0.10;0.10;;;;;;;;;;4981564;28;20060;-90
2022/02/07 01:17:45;;;;;;;0.00;0.00;;;;;;;;;;4998447;28;20096;-89
2022/02/07 01:47:44;;;;;;;0.00;0.00;;;;;;;;;;4999678;28;20057;-89
2022/02/07 01:55:49;;;;;;;0.10;0.10;;;;;;;;;;4997808;28;20205;-89
2022/02/07 01:58:03;;;;;;;2.50;1.20;;;;;;;;;;4996366;28;20041;-90
2022/02/07 02:00:29;;;;;;;0.10;0.10;;;;;;;;;;4980867;28;20042;-90
2022/02/07 02:02:55;;;;;;;5.07;4.40;;;;;;;;;;4996550;28;20454;-89
2022/02/07 02:05:22;;;;;;;0.10;0.10;;;;;;;;;;4980493;28;20049;-89
2022/02/07 02:07:49;;;;;;;0.15;0.15;;;;;;;;;;4980592;28;20068;-90
2022/02/07 02:10:15;;;;;;;0.00;0.00;;;;;;;;;;4996553;28;20046;-90
2022/02/07 02:12:48;;;;;;;0.00;0.00;;;;;;;;;;4980164;28;20113;-88
2022/02/07 02:15:30;;;;;;;0.10;0.10;;;;;;;;;;4981382;28;20446;-90
2022/02/07 02:32:37;;;;;;;0.00;0.00;;;;;;;;;;5012599;28;20046;-89
2022/02/07 02:47:25;;;;;;;2.60;0.22;;;;;;;;;;4998590;28;20045;-89
2022/02/07 02:50:04;;;;;;;0.10;0.10;;;;;;;;;;4981002;28;20504;-89
2022/02/07 02:52:30;;;;;;;0.10;0.10;;;;;;;;;;4981704;28;20050;-89
2022/02/07 02:54:56;;;;;;;0.10;0.10;;;;;;;;;;4979536;28;20611;-90
2022/02/07 02:57:22;;;;;;;0.75;0.75;;;;;;;;;;4979643;28;20052;-90
2022/02/07 02:59:48;;;;;;;0.35;0.35;;;;;;;;;;4979197;28;20391;-90
2022/02/07 03:02:14;;;;;;;0.10;0.10;;;;;;;;;;4979702;28;20037;-92
2022/02/07 03:04:40;;;;;;;0.05;0.05;;;;;;;;;;4979710;28;20331;-92
2022/02/07 03:07:06;;;;;;;0.10;0.10;;;;;;;;;;4979799;28;20137;-91
2022/02/07 03:09:32;;;;;;;0.03;0.03;;;;;;;;;;4995699;28;20526;-91
2022/02/07 03:11:58;;;;;;;0.08;0.08;;;;;;;;;;4979419;28;20129;-91
2022/02/07 03:14:42;;;;;;;0.08;0.08;;;;;;;;;;4979418;28;20128;-90
2022/02/07 03:17:08;;;;;;;0.10;0.10;;;;;;;;;;4981648;28;20049;-91
2022/02/07 03:19:34;;;;;;;0.10;0.10;;;;;;;;;;4979250;28;20037;-91
2022/02/07 03:22:00;;;;;;;0.10;0.10;;;;;;;;;;4995441;28;20125;-91
2022/02/07 03:24:26;;;;;;;0.00;0.00;;;;;;;;;;4979358;28;20041;-91
2022/02/07 03:26:52;;;;;;;0.10;0.10;;;;;;;;;;4995246;28;20050;-90
2022/02/07 03:29:18;;;;;;;0.10;0.10;;;;;;;;;;4994920;28;20383;-92
2022/02/07 03:31:44;;;;;;;0.10;0.10;;;;;;;;;;4978903;28;20050;-91
2022/02/07 03:34:10;;;;;;;0.10;0.10;;;;;;;;;;4979306;28;20052;-91
2022/02/07 03:36:36;;;;;;;0.10;0.10;;;;;;;;;;4978890;28;20034;-90
2022/02/07 03:39:03;;;;;;;0.10;0.10;;;;;;;;;;4978981;28;20049;-90
2022/02/07 03:41:30;;;;;;;0.05;0.05;;;;;;;;;;4979415;28;20038;-91
2022/02/07 03:43:56;;;;;;;0.00;0.00;;;;;;;;;;4979173;28;20510;-90
2022/02/07 03:46:22;;;;;;;0.10;0.10;;;;;;;;;;4978810;28;20042;-90
2022/02/07 03:48:48;;;;;;;0.00;0.00;;;;;;;;;;4978439;28;20493;-90
2022/02/07 03:51:14;;;;;;;0.00;0.00;;;;;;;;;;4994841;28;20042;-90
2022/02/07 03:53:40;;;;;;;0.10;0.10;;;;;;;;;;4978846;28;20072;-90
2022/02/07 03:56:06;;;;;;;0.10;0.10;;;;;;;;;;4978619;28;20065;-89
2022/02/07 03:58:32;;;;;;;0.10;0.10;;;;;;;;;;4978533;28;20046;-89
2022/02/07 04:00:58;;;;;;;0.00;0.00;;;;;;;;;;4978944;28;20450;-89
2022/02/07 04:03:28;;;;;;;0.00;0.00;;;;;;;;;;4994630;28;20058;-91
2022/02/07 04:06:01;;;;;;;0.32;0.20;;;;;;;;;;4994712;28;20049;-90
2022/02/07 04:08:31;;;;;;;0.10;0.10;;;;;;;;;;4979580;28;20200;-91
2022/02/07 04:13:29;;;;;;;0.10;0.10;;;;;;;;;;4994226;28;20057;-90
2022/02/07 04:15:56;;;;;;;10.40;1.17;;;;;;;;;;4979735;28;20069;-88
2022/02/07 04:18:25;;;;;;;0.00;0.00;;;;;;;;;;4994684;28;20151;-89
2022/02/07 04:20:51;;;;;;;0.00;0.00;;;;;;;;;;4978778;28;20121;-89
2022/02/07 04:23:17;;;;;;;0.10;0.10;;;;;;;;;;4994440;28;20105;-92
2022/02/07 04:25:43;;;;;;;0.10;0.10;;;;;;;;;;4978284;28;20041;-90
2022/02/07 04:28:09;;;;;;;0.10;0.10;;;;;;;;;;4978396;28;20084;-90
2022/02/07 04:30:35;;;;;;;0.20;0.20;;;;;;;;;;4978481;28;20046;-90
2022/02/07 04:33:01;;;;;;;0.10;0.10;;;;;;;;;;4978099;28;20042;-90
2022/02/07 04:35:27;;;;;;;0.95;0.55;;;;;;;;;;4978319;28;20505;-89
2022/02/07 04:37:53;;;;;;;0.57;0.57;;;;;;;;;;4978483;28;20065;-90
2022/02/07 04:40:19;;;;;;;0.10;0.10;;;;;;;;;;4978174;28;20068;-90
2022/02/07 04:42:45;;;;;;;0.00;0.00;;;;;;;;;;4978432;28;20363;-88
2022/02/07 04:48:09;;;;;;;0.10;0.10;;;;;;;;;;4994689;28;20184;-90
2022/02/07 04:51:07;;;;;;;0.10;0.10;;;;;;;;;;5010428;28;20050;-89
2022/02/07 04:56:02;;;;;;;0.10;0.10;;;;;;;;;;4995065;28;20081;-89
2022/02/07 05:01:43;;;;;;;0.30;0.30;;;;;;;;;;5010465;28;20053;-89
2022/02/07 05:04:06;;;;;;;0.32;0.32;;;;;;;;;;4996190;28;20497;-88
2022/02/07 05:14:49;;;;;;;0.10;0.10;;;;;;;;;;4996998;28;20228;-90
2022/02/07 05:17:16;;;;;;;0.10;0.10;;;;;;;;;;4978766;28;20046;-90
2022/02/07 05:19:42;;;;;;;3.80;2.22;;;;;;;;;;4978115;28;20078;-90
2022/02/07 05:22:08;;;;;;;0.20;0.20;;;;;;;;;;4977896;28;20508;-90
2022/02/07 05:24:35;;;;;;;0.10;0.10;;;;;;;;;;4979817;28;20091;-90
2022/02/07 05:27:01;;;;;;;0.10;0.10;;;;;;;;;;4997441;28;20038;-92
2022/02/07 05:29:27;;;;;;;0.10;0.10;;;;;;;;;;4981261;28;20046;-91
2022/02/07 05:31:53;;;;;;;0.10;0.10;;;;;;;;;;4981234;28;20410;-90
2022/02/07 05:34:19;;;;;;;0.10;0.10;;;;;;;;;;4981295;28;20046;-89
2022/02/07 05:36:46;;;;;;;0.00;0.00;;;;;;;;;;4997373;28;20462;-88
2022/02/07 05:39:18;;;;;;;0.00;0.00;;;;;;;;;;4997760;28;20386;-89
2022/02/07 05:41:45;;;;;;;0.10;0.10;;;;;;;;;;4981832;28;20042;-89
2022/02/07 05:44:12;;;;;;;0.10;0.10;;;;;;;;;;4981248;28;20120;-90
2022/02/07 05:46:39;;;;;;;0.10;0.10;;;;;;;;;;4997308;28;20486;-90
2022/02/07 05:49:05;;;;;;;0.10;0.10;;;;;;;;;;4980921;28;20061;-89
2022/02/07 05:51:31;;;;;;;1.00;0.28;;;;;;;;;;4980698;28;20125;-90
2022/02/07 05:53:57;;;;;;;0.00;0.00;;;;;;;;;;4980793;28;20084;-89
2022/02/07 05:56:23;;;;;;;0.28;0.28;;;;;;;;;;4980590;28;20405;-89
2022/02/07 05:58:49;;;;;;;0.35;0.35;;;;;;;;;;4980821;28;20041;-88
2022/02/07 06:01:14;;;;;;;0.10;0.10;;;;;;;;;;4980619;28;20041;-89
2022/02/07 06:03:40;;;;;;;0.10;0.10;;;;;;;;;;4980448;28;20668;-89
2022/02/07 06:06:06;;;;;;;0.00;0.00;;;;;;;;;;4996650;28;20054;-89
2022/02/07 06:08:32;;;;;;;0.25;0.25;;;;;;;;;;4980399;28;20099;-88
2022/02/07 06:11:01;;;;;;;0.10;0.10;;;;;;;;;;4996733;28;20504;-89
2022/02/07 06:13:27;;;;;;;0.00;0.00;;;;;;;;;;4996871;28;20081;-89
2022/02/07 06:15:53;;;;;;;0.47;0.47;;;;;;;;;;4980271;28;20131;-89
2022/02/07 06:18:20;;;;;;;0.10;0.10;;;;;;;;;;4980546;28;20034;-91
2022/02/07 06:20:48;;;;;;;0.10;0.10;;;;;;;;;;4980511;28;20045;-89
2022/02/07 06:23:14;;;;;;;0.10;0.10;;;;;;;;;;4980620;28;20069;-88
2022/02/07 06:25:40;;;;;;;0.00;0.00;;;;;;;;;;4980363;28;20045;-88
2022/02/07 06:28:06;;;;;;;0.10;0.10;;;;;;;;;;4980258;28;20045;-88
2022/02/07 06:30:32;;;;;;;0.00;0.00;;;;;;;;;;4996031;28;20457;-88
2022/02/07 06:32:58;;;;;;;0.10;0.10;;;;;;;;;;4980034;28;20257;-88
2022/02/07 06:35:24;;;;;;;0.10;0.10;;;;;;;;;;4979561;28;20042;-88
2022/02/07 06:37:51;;;;;;;0.10;0.10;;;;;;;;;;4980544;28;20037;-88
2022/02/07 06:40:17;;;;;;;0.10;0.10;;;;;;;;;;4996313;28;20056;-89
2022/02/07 06:42:43;;;;;;;0.10;0.10;;;;;;;;;;4996218;28;20061;-89
2022/02/07 06:45:09;;;;;;;0.00;0.00;;;;;;;;;;4980226;28;20046;-90
2022/02/07 06:47:35;;;;;;;0.00;0.00;;;;;;;;;;4980180;28;20038;-88
2022/02/07 06:50:01;;;;;;;0.10;0.10;;;;;;;;;;4996313;28;20038;-89
2022/02/07 06:52:27;;;;;;;0.10;0.10;;;;;;;;;;4980106;28;20075;-87
2022/02/07 06:54:53;;;;;;;0.10;0.10;;;;;;;;;;4996311;28;20127;-88
2022/02/07 06:57:21;;;;;;;0.03;0.03;;;;;;;;;;4995723;28;20557;-87
2022/02/07 06:59:48;;;;;;;0.10;0.10;;;;;;;;;;4996090;28;20045;-89
2022/02/07 07:02:14;;;;;;;0.10;0.10;;;;;;;;;;4995776;28;20046;-89
2022/02/07 07:04:40;;;;;;;0.10;0.10;;;;;;;;;;4979548;28;20169;-88
2022/02/07 07:07:06;;;;;;;0.10;0.10;;;;;;;;;;4979465;28;20080;-87
2022/02/07 07:09:34;;;;;;;0.10;0.10;;;;;;;;;;4995644;28;20057;-94
2022/02/07 07:12:04;;;;;;;0.10;0.10;;;;;;;;;;4994579;28;20054;-88
2022/02/07 07:14:40;;;;;;;0.10;0.10;;;;;;;;;;4980094;28;20061;-90
2022/02/07 07:17:06;;;;;;;0.10;0.10;;;;;;;;;;4980610;28;20075;-90
2022/02/07 07:19:32;;;;;;;0.10;0.10;;;;;;;;;;4979514;28;20088;-88
2022/02/07 07:21:59;;;;;;;0.10;0.10;;;;;;;;;;4979113;28;20187;-87
2022/02/07 07:24:25;;;;;;;0.05;0.05;;;;;;;;;;4979442;28;20038;-87
2022/02/07 07:26:51;;;;;;;0.10;0.10;;;;;;;;;;4995131;28;20037;-87
2022/02/07 07:29:22;;;;;;;0.00;0.00;;;;;;;;;;4995537;28;20196;-86
2022/02/07 07:31:52;;;;;;;0.10;0.10;;;;;;;;;;4995018;28;20042;-87
2022/02/07 07:34:18;;;;;;;0.00;0.00;;;;;;;;;;4995716;28;20046;-87
2022/02/07 07:36:46;;;;;;;0.10;0.10;;;;;;;;;;4978663;28;20187;-86
2022/02/07 07:39:13;;;;;;;0.00;0.00;;;;;;;;;;4978879;28;20046;-89
2022/02/07 07:41:43;;;;;;;0.10;0.10;;;;;;;;;;4995116;28;20049;-87
2022/02/07 07:44:14;;;;;;;0.10;0.10;;;;;;;;;;4979516;28;20049;-89
2022/02/07 07:46:40;;;;;;;0.10;0.10;;;;;;;;;;4978522;28;20046;-90
2022/02/07 07:49:13;;;;;;;0.00;0.00;;;;;;;;;;4978639;28;20129;-87
2022/02/07 07:51:47;;;;;;;0.00;0.00;;;;;;;;;;4979596;28;20088;-86
2022/02/07 07:54:26;;;;;;;0.00;0.00;;;;;;;;;;4995880;28;20049;-86
2022/02/07 08:02:25;;;;;;;0.00;0.00;;;;;;;;;;4999697;28;20128;-88
2022/02/07 08:04:53;;;;;;;0.00;0.00;;;;;;;;;;4998057;28;20042;-89
2022/02/07 08:07:26;;;;;;;0.10;0.10;;;;;;;;;;4996812;28;20068;-88
2022/02/07 08:12:25;;;;;;;0.20;0.20;;;;;;;;;;5017601;28;20053;-89
2022/02/07 08:14:51;;;;;;;0.28;0.28;;;;;;;;;;5016877;28;20046;-88
2022/02/07 08:17:21;;;;;;;0.03;0.03;;;;;;;;;;5015910;28;20102;-89
2022/02/07 08:19:47;;;;;;;0.10;0.10;;;;;;;;;;5000015;28;20077;-88
2022/02/07 08:22:13;;;;;;;0.00;0.00;;;;;;;;;;5000718;28;20040;-88
2022/02/07 08:24:40;;;;;;;0.00;0.00;;;;;;;;;;5017733;28;20041;-88
2022/02/07 08:27:06;;;;;;;0.10;0.10;;;;;;;;;;5017437;28;20041;-88
2022/02/07 08:29:32;;;;;;;0.00;0.00;;;;;;;;;;5018184;28;20064;-88
2022/02/07 08:31:58;;;;;;;0.00;0.00;;;;;;;;;;5000325;28;20041;-89
2022/02/07 08:34:24;;;;;;;0.00;0.00;;;;;;;;;;4999172;28;20044;-89
2022/02/07 08:36:52;;;;;;;0.00;0.00;;;;;;;;;;5000630;28;20037;-89
2022/02/07 08:39:18;;;;;;;0.10;0.10;;;;;;;;;;4990683;28;20040;-88
2022/02/07 08:41:44;;;;;;;1.00;0.55;;;;;;;;;;5000992;28;20042;-88
2022/02/07 08:44:10;;;;;;;0.00;0.00;;;;;;;;;;5017723;28;20041;-89
2022/02/07 08:46:36;;;;;;;0.00;0.00;;;;;;;;;;5001742;28;20059;-89
2022/02/07 08:49:03;;;;;;;0.00;0.00;;;;;;;;;;5015787;28;20066;-88
2022/02/07 08:51:31;;;;;;;0.10;0.10;;;;;;;;;;5017296;28;20056;-89
2022/02/07 08:53:58;;;;;;;0.45;0.20;;;;;;;;;;4996422;28;20038;-89
2022/02/07 08:56:37;;;;;;;0.00;0.00;;;;;;;;;;4977947;28;20050;-88
2022/02/07 08:59:03;;;;;;;0.08;0.08;;;;;;;;;;4998976;28;20092;-88
2022/02/07 09:01:41;;;;;;;0.10;0.10;;;;;;;;;;4998143;28;20513;-87
2022/02/07 09:04:41;;;;;;;0.10;0.10;;;;;;;;;;4982967;28;20501;-88
2022/02/07 09:07:01;;;;;;;0.10;0.10;;;;;;;;;;5000618;28;20335;-88
2022/02/07 09:09:27;;;;;;;0.10;0.10;;;;;;;;;;4982618;28;20167;-89
2022/02/07 09:11:53;;;;;;;0.10;0.10;;;;;;;;;;4997959;28;20527;-88
2022/02/07 09:14:22;;;;;;;0.10;0.10;;;;;;;;;;4997748;28;20443;-88
2022/02/07 09:16:48;;;;;;;0.10;0.10;;;;;;;;;;4997961;28;20046;-88
2022/02/07 09:19:19;;;;;;;1.88;0.75;;;;;;;;;;4997749;28;20033;-88
2022/02/07 09:21:45;;;;;;;0.10;0.10;;;;;;;;;;4982175;28;20385;-88
2022/02/07 09:24:11;;;;;;;0.10;0.10;;;;;;;;;;4981273;28;20098;-88
2022/02/07 09:26:37;;;;;;;0.10;0.10;;;;;;;;;;4981180;28;20529;-87
2022/02/07 09:29:03;;;;;;;0.10;0.10;;;;;;;;;;4997528;28;20038;-87
2022/02/07 09:31:29;;;;;;;0.93;0.63;;;;;;;;;;4981275;28;20093;-88
2022/02/07 09:33:55;;;;;;;0.20;0.20;;;;;;;;;;4997532;28;20096;-88
2022/02/07 09:36:22;;;;;;;0.57;0.17;;;;;;;;;;4980953;28;20042;-88
2022/02/07 09:38:48;;;;;;;0.20;0.20;;;;;;;;;;4997173;28;20037;-88
2022/02/07 09:41:16;;;;;;;0.10;0.10;;;;;;;;;;4997197;28;20125;-88
2022/02/07 09:43:45;;;;;;;2.70;1.13;;;;;;;;;;4981134;28;20041;-88
2022/02/07 09:46:18;;;;;;;0.08;0.08;;;;;;;;;;4981359;28;20193;-88
2022/02/07 09:48:44;;;;;;;3.42;0.30;;;;;;;;;;4981881;28;20053;-88
2022/02/07 09:51:10;;;;;;;0.00;0.00;;;;;;;;;;4981132;28;20095;-88
2022/02/07 09:53:36;;;;;;;1.50;0.65;;;;;;;;;;5013205;28;20128;-89
2022/02/07 09:56:03;;;;;;;0.10;0.10;;;;;;;;;;4981360;28;20474;-88
2022/02/07 09:58:32;;;;;;;0.10;0.10;;;;;;;;;;4997085;28;20069;-88
2022/02/07 10:01:01;;;;;;;4.15;0.52;;;;;;;;;;4997260;28;20394;-88
2022/02/07 10:03:32;;;;;;;0.10;0.10;;;;;;;;;;4997123;28;20109;-88
2022/02/07 10:06:06;;;;;;;0.10;0.10;;;;;;;;;;4981356;28;20072;-88
2022/02/07 10:08:36;;;;;;;0.30;0.30;;;;;;;;;;4996799;28;20068;-88
2022/02/07 10:11:26;;;;;;;0.38;0.38;;;;;;;;;;4980307;28;20057;-88
2022/02/07 10:14:09;;;;;;;0.00;0.00;;;;;;;;;;4999702;28;20095;-87
2022/02/07 10:16:44;;;;;;;0.00;0.00;;;;;;;;;;4998887;28;20045;-87
2022/02/07 10:19:58;;;;;;;0.00;0.00;;;;;;;;;;4981603;28;20037;-88
2022/02/07 10:22:27;;;;;;;0.10;0.10;;;;;;;;;;5004945;28;20037;-88
2022/02/07 10:41:41;;;;;;;5.07;0.38;;;;;;;;;;4999000;28;20077;-88
2022/02/07 10:44:44;;;;;;;0.00;0.00;;;;;;;;;;4981029;28;20053;-88
2022/02/07 10:47:17;;;;;;;0.10;0.10;;;;;;;;;;4982303;28;20038;-88
2022/02/07 10:50:01;;;;;;;0.15;0.10;;;;;;;;;;4996885;28;20050;-88
2022/02/07 10:52:27;;;;;;;0.10;0.10;;;;;;;;;;5012444;28;20050;-88
2022/02/07 10:54:53;;;;;;;0.65;0.32;;;;;;;;;;4995836;28;20041;-88
2022/02/07 10:57:20;;;;;;;0.10;0.10;;;;;;;;;;4979585;28;20057;-88
2022/02/07 10:59:46;;;;;;;0.30;0.30;;;;;;;;;;4996140;28;20064;-87
2022/02/07 11:02:42;;;;;;;0.10;0.10;;;;;;;;;;4979602;28;20045;-87
2022/02/07 11:05:11;;;;;;;0.10;0.10;;;;;;;;;;4983358;28;20050;-88
2022/02/07 11:07:37;;;;;;;0.10;0.10;;;;;;;;;;4995530;28;20061;-89
2022/02/07 11:15:59;;;;;;;0.10;0.10;;;;;;;;;;4997940;28;20137;-88
2022/02/07 11:18:51;;;;;;;0.10;0.10;;;;;;;;;;4982615;28;20041;-88
2022/02/07 11:21:37;;;;;;;0.10;0.10;;;;;;;;;;5012023;28;20489;-88
2022/02/07 11:24:31;;;;;;;0.10;0.10;;;;;;;;;;4981760;28;20037;-88
2022/02/07 11:27:16;;;;;;;0.10;0.10;;;;;;;;;;4995348;28;20069;-88
2022/02/07 11:29:48;;;;;;;0.10;0.10;;;;;;;;;;5011782;28;20041;-88
2022/02/07 11:32:45;;;;;;;0.55;0.55;;;;;;;;;;4995357;28;20049;-88
2022/02/07 11:35:12;;;;;;;0.10;0.10;;;;;;;;;;4995232;28;20054;-88
2022/02/07 11:37:38;;;;;;;0.35;0.20;;;;;;;;;;4979107;28;20045;-88
2022/02/07 11:40:22;;;;;;;4.65;1.60;;;;;;;;;;4995099;28;20482;-88
2022/02/07 11:43:07;;;;;;;0.30;0.30;;;;;;;;;;4994797;28;20485;-88
2022/02/07 11:45:52;;;;;;;0.13;0.13;;;;;;;;;;4994931;28;20573;-87
2022/02/07 11:48:33;;;;;;;0.10;0.10;;;;;;;;;;4994835;28;20043;-87
2022/02/07 11:51:13;;;;;;;2.72;0.20;;;;;;;;;;4994812;28;20046;-88
2022/02/07 11:53:46;;;;;;;0.10;0.10;;;;;;;;;;4995046;28;20056;-87
2022/02/07 11:56:17;;;;;;;0.10;0.10;;;;;;;;;;4979226;28;20057;-88
2022/02/07 11:58:48;;;;;;;0.10;0.10;;;;;;;;;;4995357;28;20540;-88
2022/02/07 12:01:17;;;;;;;0.17;0.17;;;;;;;;;;4979536;28;20065;-88
2022/02/07 12:03:43;;;;;;;0.10;0.10;;;;;;;;;;4978647;28;20114;-88
2022/02/07 12:06:09;;;;;;;0.10;0.10;;;;;;;;;;5011246;28;20057;-88
2022/02/07 12:08:37;;;;;;;0.10;0.10;;;;;;;;;;4978802;28;20474;-88
2022/02/07 12:11:03;;;;;;;1.17;0.47;;;;;;;;;;4978577;28;20038;-88
2022/02/07 12:13:31;;;;;;;0.10;0.10;;;;;;;;;;4994640;28;20046;-88
2022/02/07 12:15:59;;;;;;;0.10;0.10;;;;;;;;;;4994513;28;20049;-88
2022/02/07 12:18:25;;;;;;;0.10;0.10;;;;;;;;;;4978537;28;20129;-88
2022/02/07 12:20:52;;;;;;;0.10;0.10;;;;;;;;;;4994954;28;20049;-88
2022/02/07 12:23:18;;;;;;;0.25;0.25;;;;;;;;;;5010993;28;20049;-88
2022/02/07 12:25:51;;;;;;;1.35;0.45;;;;;;;;;;5010543;28;20421;-87
2022/02/07 12:28:27;;;;;;;0.10;0.10;;;;;;;;;;4994870;28;20077;-87
2022/02/07 12:31:17;;;;;;;4.10;0.20;;;;;;;;;;4995712;28;20042;-87
2022/02/07 12:33:43;;;;;;;0.10;0.10;;;;;;;;;;4983486;28;20042;-87
2022/02/07 12:36:09;;;;;;;0.15;0.15;;;;;;;;;;4998649;28;20458;-87
2022/02/07 12:38:37;;;;;;;0.10;0.10;;;;;;;;;;4998205;28;20037;-87
2022/02/07 12:41:03;;;;;;;1.00;0.85;;;;;;;;;;4982026;28;20049;-87
2022/02/07 12:43:31;;;;;;;0.10;0.10;;;;;;;;;;4981967;28;20104;-88
2022/02/07 12:45:57;;;;;;;1.10;1.08;;;;;;;;;;4998196;28;20497;-87
2022/02/07 12:48:28;;;;;;;0.40;0.40;;;;;;;;;;4998265;28;20049;-88
2022/02/07 12:50:54;;;;;;;0.20;0.20;;;;;;;;;;4999089;28;20087;-88
2022/02/07 12:53:21;;;;;;;0.10;0.10;;;;;;;;;;4982143;28;20052;-88
2022/02/07 12:55:47;;;;;;;0.43;0.32;;;;;;;;;;4998165;28;20029;-88
2022/02/07 12:58:13;;;;;;;0.10;0.10;;;;;;;;;;4998186;28;20049;-87
2022/02/07 13:00:40;;;;;;;0.35;0.28;;;;;;;;;;4998319;28;20390;-88
2022/02/07 13:03:06;;;;;;;2.92;0.35;;;;;;;;;;4997885;28;20041;-88
2022/02/07 13:05:33;;;;;;;0.10;0.10;;;;;;;;;;4997963;28;20053;-88
2022/02/07 13:08:01;;;;;;;9.45;0.40;;;;;;;;;;4981992;28;20107;-88
2022/02/07 13:10:34;;;;;;;0.10;0.10;;;;;;;;;;4997982;28;20120;-88
2022/02/07 13:15:30;;;;;;;0.10;0.10;;;;;;;;;;4997607;28;20401;-87
2022/02/07 13:18:04;;;;;;;0.25;0.25;;;;;;;;;;4998180;28;20053;-87
2022/02/07 13:20:30;;;;;;;0.10;0.10;;;;;;;;;;4982285;28;20034;-88
2022/02/07 13:23:02;;;;;;;0.10;0.10;;;;;;;;;;4997800;28;20041;-88
2022/02/07 13:25:42;;;;;;;0.10;0.10;;;;;;;;;;5014035;28;20104;-88
2022/02/07 13:28:26;;;;;;;0.45;0.45;;;;;;;;;;4981640;28;20038;-87
2022/02/07 13:30:53;;;;;;;0.10;0.10;;;;;;;;;;4997515;28;20433;-87
2022/02/07 13:33:19;;;;;;;0.80;0.80;;;;;;;;;;5013867;28;20041;-87
2022/02/07 13:35:47;;;;;;;0.10;0.10;;;;;;;;;;4997902;28;20052;-88
2022/02/07 13:38:14;;;;;;;0.10;0.10;;;;;;;;;;4981762;28;20077;-87
2022/02/07 13:40:44;;;;;;;0.10;0.10;;;;;;;;;;4997548;28;20037;-88
2022/02/07 13:43:20;;;;;;;0.55;0.22;;;;;;;;;;4997465;28;20044;-87
2022/02/07 13:45:50;;;;;;;0.10;0.10;;;;;;;;;;4979706;28;20516;-88
2022/02/07 13:48:17;;;;;;;0.10;0.10;;;;;;;;;;4997501;28;20033;-87
2022/02/07 13:50:45;;;;;;;0.10;0.10;;;;;;;;;;4980952;28;20089;-88
2022/02/07 13:53:13;;;;;;;0.10;0.10;;;;;;;;;;4997037;28;20478;-88
2022/02/07 13:55:40;;;;;;;0.10;0.10;;;;;;;;;;4996705;28;20117;-88
2022/02/07 13:58:07;;;;;;;0.10;0.10;;;;;;;;;;4980950;28;20038;-88
2022/02/07 14:00:34;;;;;;;0.20;0.20;;;;;;;;;;4997110;28;20124;-88
2022/02/07 14:03:13;;;;;;;0.45;0.45;;;;;;;;;;4996737;28;20501;-88
2022/02/07 14:05:44;;;;;;;0.08;0.08;;;;;;;;;;4996998;28;20077;-88
2022/02/07 14:08:11;;;;;;;0.13;0.13;;;;;;;;;;4980865;28;20100;-88
2022/02/07 14:10:38;;;;;;;0.10;0.10;;;;;;;;;;4980976;28;20041;-88
2022/02/07 14:13:05;;;;;;;0.10;0.10;;;;;;;;;;4980773;28;20057;-87
2022/02/07 14:15:31;;;;;;;0.30;0.30;;;;;;;;;;4980646;28;20046;-87
2022/02/07 14:17:57;;;;;;;0.10;0.10;;;;;;;;;;4980380;28;20049;-87
2022/02/07 14:20:30;;;;;;;0.10;0.10;;;;;;;;;;4980368;28;20088;-88
2022/02/07 14:22:56;;;;;;;;;;;;;;;;;;4997777;28;20050;-88
2022/02/07 14:25:28;;;;;;;0.10;0.10;;;;;;;;;;5012585;28;19968;-88
2022/02/07 14:27:55;;;;;;;0.10;0.10;;;;;;;;;;4996321;28;20133;-87
2022/02/07 14:30:22;;;;;;;0.10;0.10;;;;;;;;;;5012569;28;20056;-87
2022/02/07 14:32:48;;;;;;;0.10;0.10;;;;;;;;;;4980316;28;20041;-87
2022/02/07 14:35:14;;;;;;;0.10;0.10;;;;;;;;;;4980129;28;20048;-87
2022/02/07 14:37:40;;;;;;;0.10;0.10;;;;;;;;;;5012351;28;20050;-87
2022/02/07 14:40:06;;;;;;;0.10;0.10;;;;;;;;;;4995860;28;20042;-87
2022/02/07 14:42:32;;;;;;;0.10;0.10;;;;;;;;;;5012322;28;20417;-88
2022/02/07 14:45:10;;;;;;;0.10;0.10;;;;;;;;;;4979734;28;20040;-87
2022/02/07 14:47:41;;;;;;;0.10;0.10;;;;;;;;;;4981367;28;20046;-87
2022/02/07 14:50:08;;;;;;;0.15;0.15;;;;;;;;;;4980539;28;20042;-87
2022/02/07 14:52:34;;;;;;;0.10;0.10;;;;;;;;;;4995508;28;20060;-87
2022/02/07 14:55:00;;;;;;;0.10;0.10;;;;;;;;;;4995881;28;20045;-88
2022/02/07 14:57:28;;;;;;;0.10;0.10;;;;;;;;;;4979200;28;20042;-87
2022/02/07 14:59:54;;;;;;;0.10;0.10;;;;;;;;;;4979803;28;20046;-87
2022/02/07 15:02:22;;;;;;;0.10;0.10;;;;;;;;;;4995664;28;20045;-87
2022/02/07 15:04:49;;;;;;;1.65;1.55;;;;;;;;;;4995948;28;20058;-87
2022/02/07 15:07:15;;;;;;;0.10;0.10;;;;;;;;;;4979432;28;20050;-87
2022/02/07 15:09:41;;;;;;;0.10;0.10;;;;;;;;;;5012137;28;20450;-87
2022/02/07 15:12:08;;;;;;;0.10;0.10;;;;;;;;;;4995163;28;20317;-87
2022/02/07 15:14:35;;;;;;;0.10;0.10;;;;;;;;;;4995712;28;20042;-87
2022/02/07 15:17:02;;;;;;;0.25;0.25;;;;;;;;;;4979394;28;20037;-87
2022/02/07 15:19:28;;;;;;;0.15;0.15;;;;;;;;;;4995956;28;20386;-87
2022/02/07 15:21:54;;;;;;;0.15;0.15;;;;;;;;;;4978945;28;20048;-88
2022/02/07 15:24:20;;;;;;;0.10;0.10;;;;;;;;;;4979035;28;20095;-87
2022/02/07 15:26:47;;;;;;;0.20;0.20;;;;;;;;;;5011600;28;20132;-87
2022/02/07 15:29:14;;;;;;;0.10;0.10;;;;;;;;;;4979673;28;20370;-87
2022/02/07 15:31:46;;;;;;;0.10;0.10;;;;;;;;;;5011242;28;20129;-87
2022/02/07 15:34:12;;;;;;;;;;;;;;;;;;5012022;28;20050;-87
2022/02/07 15:36:38;;;;;;;0.10;0.10;;;;;;;;;;4995202;28;20348;-87
2022/02/07 15:39:08;;;;;;;0.10;0.10;;;;;;;;;;4978969;28;20101;-87
2022/02/07 15:41:35;;;;;;;0.10;0.10;;;;;;;;;;4979406;28;20153;-87
2022/02/07 15:44:01;;;;;;;0.10;0.10;;;;;;;;;;5011286;28;20074;-87
2022/02/07 15:46:29;;;;;;;0.10;0.10;;;;;;;;;;4994972;28;20583;-88
2022/02/07 15:48:55;;;;;;;0.10;0.10;;;;;;;;;;4995420;28;20041;-87
2022/02/07 15:51:21;;;;;;;0.10;0.10;;;;;;;;;;4995062;28;20056;-87
2022/02/07 15:53:48;;;;;;;0.10;0.10;;;;;;;;;;4995291;28;20034;-87
2022/02/07 15:56:14;;;;;;;0.10;0.10;;;;;;;;;;4994950;28;20042;-87
2022/02/07 15:58:40;;;;;;;0.08;0.08;;;;;;;;;;5011311;28;20124;-87
2022/02/07 16:01:06;;;;;;;0.10;0.10;;;;;;;;;;4994814;28;20042;-87
2022/02/07 16:03:32;;;;;;;0.10;0.10;;;;;;;;;;4994481;28;20172;-88
2022/02/07 16:05:59;;;;;;;0.10;0.10;;;;;;;;;;4994879;28;20535;-87
2022/02/07 16:08:25;;;;;;;0.10;0.10;;;;;;;;;;4994340;28;20041;-87
2022/02/07 16:10:52;;;;;;;0.00;0.00;;;;;;;;;;4995076;28;20045;-87
2022/02/07 16:13:20;;;;;;;0.10;0.10;;;;;;;;;;4978615;28;20074;-87
2022/02/07 16:15:46;;;;;;;0.08;0.08;;;;;;;;;;4994733;28;20103;-88
2022/02/07 16:18:13;;;;;;;0.10;0.10;;;;;;;;;;4978476;28;20080;-88
2022/02/07 16:20:42;;;;;;;0.10;0.10;;;;;;;;;;4978896;28;20046;-88
2022/02/07 16:23:09;;;;;;;0.10;0.10;;;;;;;;;;4978651;28;20049;-87
2022/02/07 16:25:42;;;;;;;0.10;0.10;;;;;;;;;;4978853;28;20236;-88
2022/02/07 16:28:08;;;;;;;0.10;0.10;;;;;;;;;;4994868;28;20080;-87
2022/02/07 16:30:34;;;;;;;0.10;0.10;;;;;;;;;;4978179;28;20132;-88
2022/02/07 16:33:01;;;;;;;0.10;0.10;;;;;;;;;;4978578;28;20042;-87
2022/02/07 16:35:26;;;;;;;0.10;0.10;;;;;;;;;;4994988;28;20374;-87
2022/02/07 16:37:52;;;;;;;0.10;0.10;;;;;;;;;;4994487;28;20038;-88
2022/02/07 16:40:19;;;;;;;0.10;0.10;;;;;;;;;;4994577;28;20175;-88
2022/02/07 16:42:45;;;;;;;0.10;0.10;;;;;;;;;;4978398;28;20709;-88
2022/02/07 16:45:22;;;;;;;0.10;0.10;;;;;;;;;;4994583;28;20038;-88
2022/02/07 16:47:48;;;;;;;0.10;0.10;;;;;;;;;;4995811;28;20124;-88
2022/02/07 16:50:14;;;;;;;0.10;0.10;;;;;;;;;;4978398;28;20100;-88